createdAt,value
2023-10-03T00:01:53.646Z,17.66
2023-10-03T00:06:55.322Z,17.65
2023-10-03T00:11:57.002Z,17.66
2023-10-03T00:16:59.086Z,17.65
2023-10-03T00:22:00.859Z,17.63
2023-10-03T00:27:05.812Z,17.60
2023-10-03T00:32:08.868Z,17.53
2023-10-03T00:37:12.040Z,17.46
2023-10-03T00:42:13.714Z,17.41
2023-10-03T00:47:15.735Z,17.39
2023-10-03T00:52:17.476Z,17.37
2023-10-03T00:57:19.655Z,17.32
2023-10-03T01:02:22.764Z,17.30
2023-10-03T01:07:24.464Z,17.27
2023-10-03T01:12:26.428Z,17.25
2023-10-03T01:17:31.614Z,17.26
2023-10-03T01:22:34.296Z,17.25
2023-10-03T01:27:35.962Z,17.18
2023-10-03T01:32:44.220Z,17.12
2023-10-03T01:37:46.476Z,17.09
2023-10-03T01:42:48.637Z,17.07
2023-10-03T01:47:51.061Z,17.05
2023-10-03T01:52:53.761Z,17.04
2023-10-03T01:57:55.428Z,16.98
2023-10-03T02:03:05.813Z,16.94
2023-10-03T02:08:16.629Z,16.92
2023-10-03T02:13:20.602Z,16.92
2023-10-03T02:18:22.618Z,16.90
2023-10-03T02:23:26.129Z,16.89
2023-10-03T02:28:28.784Z,16.88
2023-10-03T02:33:30.790Z,16.88
2023-10-03T02:38:37.570Z,16.87
2023-10-03T02:43:43.089Z,16.85
2023-10-03T02:48:44.748Z,16.82
2023-10-03T02:53:46.985Z,16.81
2023-10-03T02:58:48.822Z,16.80
2023-10-03T03:03:51.145Z,16.80
2023-10-03T03:08:53.245Z,16.77
2023-10-03T03:13:54.973Z,16.71
2023-10-03T03:18:56.671Z,16.64
2023-10-03T03:24:01.116Z,16.54
2023-10-03T03:29:07.475Z,16.41
2023-10-03T03:34:09.188Z,16.28
2023-10-03T03:39:17.154Z,16.16
2023-10-03T03:44:20.205Z,16.07
2023-10-03T03:49:23.907Z,16.01
2023-10-03T03:54:26.520Z,15.96
2023-10-03T03:59:28.740Z,15.90
2023-10-03T04:04:30.485Z,15.82
2023-10-03T04:09:32.732Z,15.74
2023-10-03T04:14:34.553Z,15.67
2023-10-03T04:19:36.518Z,15.56
2023-10-03T04:24:38.297Z,15.48
2023-10-03T04:29:40.007Z,15.44
2023-10-03T04:34:42.167Z,15.41
2023-10-03T04:39:44.245Z,15.41
2023-10-03T04:44:45.964Z,15.43
2023-10-03T04:49:47.698Z,15.46
2023-10-03T04:54:49.373Z,15.50
2023-10-03T04:59:51.376Z,15.55
2023-10-03T05:04:53.133Z,15.69
2023-10-03T05:09:55.119Z,15.96
2023-10-03T05:14:56.734Z,16.30
2023-10-03T05:19:59.897Z,16.59
2023-10-03T05:25:02.099Z,16.81
2023-10-03T05:30:06.108Z,17.09
2023-10-03T05:35:09.501Z,17.47
2023-10-03T05:40:19.713Z,18.02
2023-10-03T05:45:21.525Z,18.73
2023-10-03T05:50:24.524Z,19.38
2023-10-03T05:55:26.378Z,20.04
2023-10-03T06:00:28.457Z,20.56
2023-10-03T06:05:30.105Z,21.11
2023-10-03T06:10:31.716Z,21.89
2023-10-03T06:15:36.973Z,22.58
2023-10-03T06:20:39.097Z,22.94
2023-10-03T06:25:40.841Z,23.35
2023-10-03T06:30:42.766Z,24.24
2023-10-03T06:35:44.512Z,24.85
2023-10-03T06:40:47.038Z,25.57
2023-10-03T06:45:48.771Z,26.10
2023-10-03T06:50:51.688Z,26.47
2023-10-03T06:55:54.369Z,26.68
2023-10-03T07:00:56.531Z,26.91
2023-10-03T07:05:59.313Z,27.70
2023-10-03T07:11:01.870Z,29.03
2023-10-03T07:16:04.570Z,30.43
2023-10-03T07:21:06.360Z,31.68
2023-10-03T07:26:08.234Z,32.66
2023-10-03T07:31:13.401Z,33.36
2023-10-03T07:36:17.917Z,33.77
2023-10-03T07:41:20.785Z,34.43
2023-10-03T07:46:24.596Z,35.05
2023-10-03T07:51:30.671Z,35.70
2023-10-03T07:56:34.110Z,36.66
2023-10-03T08:01:57.679Z,37.12
2023-10-03T08:07:01.604Z,37.00
2023-10-03T08:12:12.302Z,37.54
2023-10-03T08:17:16.624Z,38.12
2023-10-03T08:22:20.700Z,38.96
2023-10-03T08:27:23.104Z,39.44
2023-10-03T08:32:28.335Z,39.56
2023-10-03T08:37:30.147Z,39.74
2023-10-03T08:42:35.056Z,40.12
2023-10-03T08:47:39.336Z,40.34
2023-10-03T08:52:49.719Z,40.67
2023-10-03T08:57:51.697Z,41.39
2023-10-03T09:03:09.874Z,41.47
2023-10-03T09:08:16.850Z,41.16
2023-10-03T09:13:26.831Z,40.81
2023-10-03T09:18:41.372Z,40.59
2023-10-03T09:24:27.338Z,40.24
2023-10-03T09:29:32.556Z,39.60
2023-10-03T09:34:40.809Z,38.61
2023-10-03T09:39:52.216Z,38.09
2023-10-03T09:45:00.678Z,37.47
2023-10-03T09:50:06.943Z,37.29
2023-10-03T09:55:21.722Z,37.36
2023-10-03T10:00:26.055Z,37.37
2023-10-03T10:05:29.849Z,38.50
2023-10-03T10:10:34.059Z,39.68
2023-10-03T10:16:01.749Z,41.15
2023-10-03T10:21:38.473Z,42.16
2023-10-03T10:26:40.622Z,42.78
2023-10-03T10:31:45.737Z,42.88
2023-10-03T10:37:03.159Z,41.37
2023-10-03T10:42:10.223Z,39.06
2023-10-03T10:47:14.939Z,37.57
2023-10-03T10:52:20.099Z,35.02
2023-10-03T10:57:27.391Z,33.01
2023-10-03T11:02:34.146Z,31.33
2023-10-03T11:07:37.623Z,30.55
2023-10-03T11:12:39.356Z,31.69
2023-10-03T11:17:48.985Z,32.97
2023-10-03T11:22:50.837Z,32.68
2023-10-03T11:27:52.581Z,32.97
2023-10-03T11:33:02.044Z,33.05
2023-10-03T11:38:07.238Z,33.82
2023-10-03T11:43:08.907Z,34.58
2023-10-03T11:48:19.825Z,34.87
2023-10-03T11:53:22.398Z,34.29
2023-10-03T11:58:24.192Z,34.11
2023-10-03T12:03:25.843Z,34.44
2023-10-03T12:08:28.656Z,34.90
2023-10-03T12:13:30.533Z,34.65
2023-10-03T12:18:32.322Z,34.89
2023-10-03T12:23:35.741Z,36.18
2023-10-03T12:28:37.447Z,36.13
2023-10-03T12:33:39.192Z,35.55
2023-10-03T12:38:40.922Z,34.79
2023-10-03T12:43:47.040Z,33.21
2023-10-03T12:48:48.838Z,31.54
2023-10-03T12:53:52.963Z,30.09
2023-10-03T12:58:57.906Z,28.96
2023-10-03T13:03:59.967Z,28.08
2023-10-03T13:09:01.892Z,27.37
2023-10-03T13:14:04.929Z,26.93
2023-10-03T13:19:08.168Z,26.68
2023-10-03T13:24:10.605Z,26.48
2023-10-03T13:29:12.715Z,26.32
2023-10-03T13:34:15.081Z,26.19
2023-10-03T13:39:19.829Z,26.12
2023-10-03T13:44:21.695Z,26.06
2023-10-03T13:49:25.133Z,26.00
2023-10-03T13:54:31.090Z,25.96
2023-10-03T13:59:33.306Z,25.93
2023-10-03T14:04:37.202Z,25.94
2023-10-03T14:09:40.103Z,25.97
2023-10-03T14:14:43.070Z,25.95
2023-10-03T14:19:45.000Z,25.92
2023-10-03T14:24:47.253Z,25.87
2023-10-03T14:29:48.860Z,25.79
2023-10-03T14:34:51.965Z,25.71
2023-10-03T14:39:53.645Z,25.63
2023-10-03T14:44:55.341Z,25.58
2023-10-03T14:49:57.911Z,25.55
2023-10-03T14:54:59.905Z,25.54
2023-10-03T15:00:02.264Z,25.51
2023-10-03T15:05:06.847Z,25.48
2023-10-03T15:10:10.049Z,25.45
2023-10-03T15:15:12.823Z,25.39
2023-10-03T15:20:17.457Z,25.33
2023-10-03T15:25:19.582Z,25.27
2023-10-03T15:30:21.323Z,25.21
2023-10-03T15:35:23.448Z,25.15
2023-10-03T15:40:28.291Z,25.07
2023-10-03T15:45:34.391Z,25.00
2023-10-03T15:50:37.079Z,24.93
2023-10-03T15:55:39.123Z,24.89
2023-10-03T16:00:41.566Z,24.84
2023-10-03T16:05:43.271Z,24.80
2023-10-03T16:10:45.004Z,24.76
2023-10-03T16:15:48.085Z,24.73
2023-10-03T16:20:50.014Z,24.68
2023-10-03T16:25:51.795Z,24.63
2023-10-03T16:30:53.676Z,24.56
2023-10-03T16:35:57.326Z,24.52
2023-10-03T16:40:59.061Z,24.47
2023-10-03T16:46:04.042Z,24.41
2023-10-03T16:51:05.852Z,24.35
2023-10-03T16:56:08.483Z,24.27
2023-10-03T17:01:10.287Z,24.17
2023-10-03T17:06:12.241Z,24.08
2023-10-03T17:11:14.529Z,23.99
2023-10-03T17:16:16.410Z,23.89
2023-10-03T17:21:21.695Z,23.81
2023-10-03T17:26:23.857Z,23.73
2023-10-03T17:31:25.909Z,23.65
2023-10-03T17:36:27.899Z,23.56
2023-10-03T17:41:29.606Z,23.48
2023-10-03T17:46:32.594Z,23.40
2023-10-03T17:51:35.320Z,23.32
2023-10-03T17:56:37.090Z,23.26
2023-10-03T18:01:38.842Z,23.21
2023-10-03T18:06:40.681Z,23.12
2023-10-03T18:11:42.527Z,23.04
2023-10-03T18:16:44.508Z,22.95
2023-10-03T18:21:46.742Z,22.87
2023-10-03T18:26:49.711Z,22.81
2023-10-03T18:31:51.386Z,22.74
2023-10-03T18:36:53.058Z,22.65
2023-10-03T18:41:54.778Z,22.56
2023-10-03T18:46:56.674Z,22.47
2023-10-03T18:51:58.493Z,22.42
2023-10-03T18:57:00.638Z,22.45
2023-10-03T19:02:02.403Z,22.49
2023-10-03T19:07:05.016Z,22.49
2023-10-03T19:12:07.164Z,22.47
2023-10-03T19:17:09.022Z,22.43
2023-10-03T19:22:11.413Z,22.36
2023-10-03T19:27:13.109Z,22.26
2023-10-03T19:32:18.118Z,22.18
2023-10-03T19:37:19.870Z,22.11
2023-10-03T19:42:22.636Z,22.06
2023-10-03T19:47:24.946Z,22.01
2023-10-03T19:52:26.590Z,21.99
2023-10-03T19:57:28.346Z,21.98
2023-10-03T20:02:29.999Z,21.98
2023-10-03T20:07:31.717Z,21.74
2023-10-03T20:12:35.444Z,21.19
2023-10-03T20:17:37.017Z,20.65
2023-10-03T20:22:42.735Z,20.28
2023-10-03T20:27:45.181Z,20.04
2023-10-03T20:32:46.897Z,19.85
2023-10-03T20:37:48.835Z,19.71
2023-10-03T20:42:50.921Z,19.61
2023-10-03T20:47:53.102Z,19.52
2023-10-03T20:52:55.002Z,19.48
2023-10-03T20:57:56.961Z,19.46
2023-10-03T21:02:58.908Z,19.36
2023-10-03T21:08:02.830Z,18.94
2023-10-03T21:13:04.661Z,18.22
2023-10-03T21:18:09.195Z,17.55
2023-10-03T21:23:10.889Z,17.08
2023-10-03T21:28:13.171Z,16.76
2023-10-03T21:33:14.909Z,16.57
2023-10-03T21:38:17.664Z,16.43
2023-10-03T21:43:19.297Z,16.30
2023-10-03T21:48:21.869Z,16.16
2023-10-03T21:53:23.608Z,16.05
2023-10-03T21:58:25.286Z,15.97
2023-10-03T22:03:28.190Z,15.90
2023-10-03T22:08:32.344Z,15.81
2023-10-03T22:13:34.094Z,15.68
2023-10-03T22:18:38.470Z,15.56
2023-10-03T22:23:40.304Z,15.45
2023-10-03T22:28:41.983Z,15.37
2023-10-03T22:33:44.087Z,15.29
2023-10-03T22:38:47.078Z,15.23
2023-10-03T22:43:49.166Z,15.19
2023-10-03T22:48:51.311Z,15.16
2023-10-03T22:53:53.166Z,15.14
2023-10-03T22:58:55.150Z,15.14
2023-10-03T23:03:56.848Z,15.12
2023-10-03T23:08:58.561Z,15.05
2023-10-03T23:14:00.852Z,14.96
2023-10-03T23:19:03.831Z,14.88
2023-10-03T23:24:10.509Z,14.81
2023-10-03T23:29:12.433Z,14.77
2023-10-03T23:34:16.507Z,14.76
2023-10-03T23:39:19.944Z,14.75
2023-10-03T23:44:21.664Z,14.72
2023-10-03T23:49:23.595Z,14.68
2023-10-03T23:54:25.247Z,14.61
2023-10-03T23:59:27.204Z,14.53
